sensor_id;sensor_type;location;lat;lon;timestamp;temperature;humidity
22917;DHT22;11624;53.250;7.456;2023-08-17T00:01:26;22.16;54.08
22917;DHT22;11624;53.250;7.456;2023-08-17T00:03:54;22.14;54.03
22917;DHT22;11624;53.250;7.456;2023-08-17T00:06:22;22.14;54.04
22917;DHT22;11624;53.250;7.456;2023-08-17T00:08:52;22.16;53.94
22917;DHT22;11624;53.250;7.456;2023-08-17T00:11:20;22.17;53.88
22917;DHT22;11624;53.250;7.456;2023-08-17T00:13:49;22.13;53.84
22917;DHT22;11624;53.250;7.456;2023-08-17T00:16:17;22.11;53.86
22917;DHT22;11624;53.250;7.456;2023-08-17T00:18:45;22.07;53.87
22917;DHT22;11624;53.250;7.456;2023-08-17T00:21:14;22.03;53.95
22917;DHT22;11624;53.250;7.456;2023-08-17T00:23:42;21.99;53.99
22917;DHT22;11624;53.250;7.456;2023-08-17T00:26:11;21.99;53.97
22917;DHT22;11624;53.250;7.456;2023-08-17T00:28:41;21.94;54.01
22917;DHT22;11624;53.250;7.456;2023-08-17T00:31:10;21.91;54.07
22917;DHT22;11624;53.250;7.456;2023-08-17T00:33:38;21.85;54.18
22917;DHT22;11624;53.250;7.456;2023-08-17T00:36:07;21.83;54.23
22917;DHT22;11624;53.250;7.456;2023-08-17T00:38:35;21.78;54.44
22917;DHT22;11624;53.250;7.456;2023-08-17T00:41:04;21.74;54.63
22917;DHT22;11624;53.250;7.456;2023-08-17T00:43:33;21.75;54.63
22917;DHT22;11624;53.250;7.456;2023-08-17T00:46:02;21.75;54.66
22917;DHT22;11624;53.250;7.456;2023-08-17T00:48:30;21.76;54.59
22917;DHT22;11624;53.250;7.456;2023-08-17T00:50:59;21.78;54.60
22917;DHT22;11624;53.250;7.456;2023-08-17T00:53:29;21.81;54.54
22917;DHT22;11624;53.250;7.456;2023-08-17T00:55:59;21.83;54.59
22917;DHT22;11624;53.250;7.456;2023-08-17T00:58:28;21.84;54.55
22917;DHT22;11624;53.250;7.456;2023-08-17T01:00:58;21.89;54.46
22917;DHT22;11624;53.250;7.456;2023-08-17T01:03:28;21.90;54.47
22917;DHT22;11624;53.250;7.456;2023-08-17T01:05:57;21.93;54.58
22917;DHT22;11624;53.250;7.456;2023-08-17T01:08:25;21.90;54.67
22917;DHT22;11624;53.250;7.456;2023-08-17T01:10:58;21.94;54.44
22917;DHT22;11624;53.250;7.456;2023-08-17T01:13:34;21.99;54.15
22917;DHT22;11624;53.250;7.456;2023-08-17T01:16:06;21.97;54.50
22917;DHT22;11624;53.250;7.456;2023-08-17T01:18:39;21.98;54.66
22917;DHT22;11624;53.250;7.456;2023-08-17T01:21:10;21.99;54.61
22917;DHT22;11624;53.250;7.456;2023-08-17T01:23:40;21.99;54.57
22917;DHT22;11624;53.250;7.456;2023-08-17T01:26:21;22.03;54.74
22917;DHT22;11624;53.250;7.456;2023-08-17T01:28:56;22.08;54.47
22917;DHT22;11624;53.250;7.456;2023-08-17T01:31:32;22.10;54.61
22917;DHT22;11624;53.250;7.456;2023-08-17T01:34:08;22.10;54.51
22917;DHT22;11624;53.250;7.456;2023-08-17T01:36:45;22.13;54.35
22917;DHT22;11624;53.250;7.456;2023-08-17T01:39:23;22.14;54.13
22917;DHT22;11624;53.250;7.456;2023-08-17T01:41:52;22.14;54.55
22917;DHT22;11624;53.250;7.456;2023-08-17T01:44:24;22.13;54.60
22917;DHT22;11624;53.250;7.456;2023-08-17T01:46:52;22.16;54.59
22917;DHT22;11624;53.250;7.456;2023-08-17T01:49:22;22.18;54.51
22917;DHT22;11624;53.250;7.456;2023-08-17T01:51:50;22.16;54.51
22917;DHT22;11624;53.250;7.456;2023-08-17T01:54:20;22.13;54.52
22917;DHT22;11624;53.250;7.456;2023-08-17T01:56:48;22.12;54.54
22917;DHT22;11624;53.250;7.456;2023-08-17T01:59:17;22.10;54.62
22917;DHT22;11624;53.250;7.456;2023-08-17T02:01:45;22.07;54.60
22917;DHT22;11624;53.250;7.456;2023-08-17T02:04:14;22.08;54.61
22917;DHT22;11624;53.250;7.456;2023-08-17T02:06:42;22.06;54.58
22917;DHT22;11624;53.250;7.456;2023-08-17T02:09:11;22.03;54.56
22917;DHT22;11624;53.250;7.456;2023-08-17T02:11:40;21.97;54.69
22917;DHT22;11624;53.250;7.456;2023-08-17T02:14:08;21.94;54.85
22917;DHT22;11624;53.250;7.456;2023-08-17T02:16:36;21.90;54.92
22917;DHT22;11624;53.250;7.456;2023-08-17T02:19:05;21.89;54.95
22917;DHT22;11624;53.250;7.456;2023-08-17T02:21:33;21.85;54.99
22917;DHT22;11624;53.250;7.456;2023-08-17T02:24:01;21.82;55.08
22917;DHT22;11624;53.250;7.456;2023-08-17T02:26:29;21.82;55.04
22917;DHT22;11624;53.250;7.456;2023-08-17T02:28:59;21.79;55.18
22917;DHT22;11624;53.250;7.456;2023-08-17T02:31:28;21.77;55.31
22917;DHT22;11624;53.250;7.456;2023-08-17T02:33:56;21.78;55.33
22917;DHT22;11624;53.250;7.456;2023-08-17T02:36:27;21.77;55.33
22917;DHT22;11624;53.250;7.456;2023-08-17T02:38:56;21.75;55.45
22917;DHT22;11624;53.250;7.456;2023-08-17T02:41:24;21.75;55.47
22917;DHT22;11624;53.250;7.456;2023-08-17T02:43:52;21.76;55.52
22917;DHT22;11624;53.250;7.456;2023-08-17T02:46:22;21.82;55.45
22917;DHT22;11624;53.250;7.456;2023-08-17T02:48:50;21.80;55.52
22917;DHT22;11624;53.250;7.456;2023-08-17T02:51:18;21.79;55.67
22917;DHT22;11624;53.250;7.456;2023-08-17T02:53:46;21.80;55.74
22917;DHT22;11624;53.250;7.456;2023-08-17T02:56:14;21.84;55.71
22917;DHT22;11624;53.250;7.456;2023-08-17T02:58:42;21.85;55.60
22917;DHT22;11624;53.250;7.456;2023-08-17T03:01:10;21.84;55.64
22917;DHT22;11624;53.250;7.456;2023-08-17T03:03:40;21.88;55.57
22917;DHT22;11624;53.250;7.456;2023-08-17T03:06:11;21.87;55.68
22917;DHT22;11624;53.250;7.456;2023-08-17T03:08:39;21.90;55.62
22917;DHT22;11624;53.250;7.456;2023-08-17T03:11:07;21.90;55.66
22917;DHT22;11624;53.250;7.456;2023-08-17T03:13:36;21.92;55.67
22917;DHT22;11624;53.250;7.456;2023-08-17T03:16:04;21.94;55.71
22917;DHT22;11624;53.250;7.456;2023-08-17T03:18:32;21.96;55.75
22917;DHT22;11624;53.250;7.456;2023-08-17T03:21:02;22.01;55.74
22917;DHT22;11624;53.250;7.456;2023-08-17T03:23:32;22.01;55.85
22917;DHT22;11624;53.250;7.456;2023-08-17T03:26:01;22.04;55.87
22917;DHT22;11624;53.250;7.456;2023-08-17T03:28:29;22.07;55.84
22917;DHT22;11624;53.250;7.456;2023-08-17T03:30:58;22.09;55.83
22917;DHT22;11624;53.250;7.456;2023-08-17T03:33:26;22.08;55.90
22917;DHT22;11624;53.250;7.456;2023-08-17T03:35:54;22.10;55.97
22917;DHT22;11624;53.250;7.456;2023-08-17T03:38:25;22.10;55.93
22917;DHT22;11624;53.250;7.456;2023-08-17T03:40:54;22.14;55.97
22917;DHT22;11624;53.250;7.456;2023-08-17T03:43:23;22.18;55.94
22917;DHT22;11624;53.250;7.456;2023-08-17T03:45:52;22.18;55.92
22917;DHT22;11624;53.250;7.456;2023-08-17T03:48:20;22.19;55.95
22917;DHT22;11624;53.250;7.456;2023-08-17T03:50:51;22.21;55.93
22917;DHT22;11624;53.250;7.456;2023-08-17T03:53:19;22.23;55.96
22917;DHT22;11624;53.250;7.456;2023-08-17T03:55:49;22.25;55.91
22917;DHT22;11624;53.250;7.456;2023-08-17T03:58:18;22.25;55.90
22917;DHT22;11624;53.250;7.456;2023-08-17T04:00:49;22.21;55.77
22917;DHT22;11624;53.250;7.456;2023-08-17T04:03:22;22.18;56.07
22917;DHT22;11624;53.250;7.456;2023-08-17T04:05:50;22.17;56.19
22917;DHT22;11624;53.250;7.456;2023-08-17T04:08:20;22.17;56.17
22917;DHT22;11624;53.250;7.456;2023-08-17T04:10:50;22.14;56.22
22917;DHT22;11624;53.250;7.456;2023-08-17T04:13:18;22.13;56.36
22917;DHT22;11624;53.250;7.456;2023-08-17T04:15:46;22.12;56.49
22917;DHT22;11624;53.250;7.456;2023-08-17T04:18:14;22.14;56.53
22917;DHT22;11624;53.250;7.456;2023-08-17T04:20:42;22.18;56.40
22917;DHT22;11624;53.250;7.456;2023-08-17T04:23:12;22.13;56.52
22917;DHT22;11624;53.250;7.456;2023-08-17T04:25:41;22.14;56.64
22917;DHT22;11624;53.250;7.456;2023-08-17T04:28:11;22.16;56.58
22917;DHT22;11624;53.250;7.456;2023-08-17T04:30:42;22.17;56.58
22917;DHT22;11624;53.250;7.456;2023-08-17T04:33:11;22.18;56.60
22917;DHT22;11624;53.250;7.456;2023-08-17T04:35:39;22.17;56.66
22917;DHT22;11624;53.250;7.456;2023-08-17T04:38:07;22.13;56.77
22917;DHT22;11624;53.250;7.456;2023-08-17T04:40:37;22.16;56.74
22917;DHT22;11624;53.250;7.456;2023-08-17T04:43:06;22.17;56.74
22917;DHT22;11624;53.250;7.456;2023-08-17T04:45:36;22.18;56.74
22917;DHT22;11624;53.250;7.456;2023-08-17T04:48:05;22.13;56.92
22917;DHT22;11624;53.250;7.456;2023-08-17T04:50:34;22.14;56.96
22917;DHT22;11624;53.250;7.456;2023-08-17T04:53:03;22.17;56.98
22917;DHT22;11624;53.250;7.456;2023-08-17T04:55:31;22.20;56.94
22917;DHT22;11624;53.250;7.456;2023-08-17T04:58:00;22.21;56.98
22917;DHT22;11624;53.250;7.456;2023-08-17T05:00:28;22.23;56.88
22917;DHT22;11624;53.250;7.456;2023-08-17T05:02:59;22.26;56.82
22917;DHT22;11624;53.250;7.456;2023-08-17T05:05:32;22.27;56.83
22917;DHT22;11624;53.250;7.456;2023-08-17T05:08:05;22.27;56.76
22917;DHT22;11624;53.250;7.456;2023-08-17T05:10:33;22.28;56.82
22917;DHT22;11624;53.250;7.456;2023-08-17T05:13:01;22.27;56.83
22917;DHT22;11624;53.250;7.456;2023-08-17T05:15:30;22.27;56.85
22917;DHT22;11624;53.250;7.456;2023-08-17T05:18:00;22.27;56.88
22917;DHT22;11624;53.250;7.456;2023-08-17T05:20:28;22.26;57.02
22917;DHT22;11624;53.250;7.456;2023-08-17T05:22:57;22.32;57.00
22917;DHT22;11624;53.250;7.456;2023-08-17T05:25:25;22.33;57.01
22917;DHT22;11624;53.250;7.456;2023-08-17T05:27:54;22.37;56.98
22917;DHT22;11624;53.250;7.456;2023-08-17T05:30:23;22.42;56.96
22917;DHT22;11624;53.250;7.456;2023-08-17T05:32:51;22.43;56.92
22917;DHT22;11624;53.250;7.456;2023-08-17T05:35:22;22.48;56.81
22917;DHT22;11624;53.250;7.456;2023-08-17T05:37:50;22.53;56.72
22917;DHT22;11624;53.250;7.456;2023-08-17T05:40:18;22.54;56.62
22917;DHT22;11624;53.250;7.456;2023-08-17T05:42:46;22.56;56.53
22917;DHT22;11624;53.250;7.456;2023-08-17T05:45:14;22.60;56.47
22917;DHT22;11624;53.250;7.456;2023-08-17T05:47:42;22.63;56.26
22917;DHT22;11624;53.250;7.456;2023-08-17T05:50:12;22.61;56.35
22917;DHT22;11624;53.250;7.456;2023-08-17T05:52:41;22.65;56.26
22917;DHT22;11624;53.250;7.456;2023-08-17T05:55:10;22.66;56.31
22917;DHT22;11624;53.250;7.456;2023-08-17T05:57:38;22.68;56.21
22917;DHT22;11624;53.250;7.456;2023-08-17T06:00:07;22.67;56.27
22917;DHT22;11624;53.250;7.456;2023-08-17T06:02:41;22.67;56.36
22917;DHT22;11624;53.250;7.456;2023-08-17T06:05:10;22.69;56.29
22917;DHT22;11624;53.250;7.456;2023-08-17T06:07:38;22.70;56.24
22917;DHT22;11624;53.250;7.456;2023-08-17T06:10:09;22.72;56.14
22917;DHT22;11624;53.250;7.456;2023-08-17T06:12:38;22.79;56.20
22917;DHT22;11624;53.250;7.456;2023-08-17T06:15:07;22.80;56.07
22917;DHT22;11624;53.250;7.456;2023-08-17T06:17:35;22.75;56.15
22917;DHT22;11624;53.250;7.456;2023-08-17T06:20:04;22.75;56.20
22917;DHT22;11624;53.250;7.456;2023-08-17T06:22:38;22.78;56.26
22917;DHT22;11624;53.250;7.456;2023-08-17T06:25:08;22.81;56.27
22917;DHT22;11624;53.250;7.456;2023-08-17T06:27:36;22.87;56.13
22917;DHT22;11624;53.250;7.456;2023-08-17T06:30:05;22.92;56.05
22917;DHT22;11624;53.250;7.456;2023-08-17T06:32:34;23.01;55.96
22917;DHT22;11624;53.250;7.456;2023-08-17T06:35:02;23.06;55.88
22917;DHT22;11624;53.250;7.456;2023-08-17T06:37:31;23.12;55.65
22917;DHT22;11624;53.250;7.456;2023-08-17T06:39:59;23.22;55.41
22917;DHT22;11624;53.250;7.456;2023-08-17T06:42:28;23.28;55.37
22917;DHT22;11624;53.250;7.456;2023-08-17T06:44:56;23.39;54.89
22917;DHT22;11624;53.250;7.456;2023-08-17T06:47:24;23.41;54.95
22917;DHT22;11624;53.250;7.456;2023-08-17T06:49:54;23.51;54.80
22917;DHT22;11624;53.250;7.456;2023-08-17T06:52:24;23.57;54.61
22917;DHT22;11624;53.250;7.456;2023-08-17T06:54:52;23.69;54.38
22917;DHT22;11624;53.250;7.456;2023-08-17T06:57:20;23.82;53.78
22917;DHT22;11624;53.250;7.456;2023-08-17T06:59:50;23.87;53.43
22917;DHT22;11624;53.250;7.456;2023-08-17T07:02:19;24.03;53.46
22917;DHT22;11624;53.250;7.456;2023-08-17T07:04:48;24.19;53.17
22917;DHT22;11624;53.250;7.456;2023-08-17T07:07:16;24.30;52.38
22917;DHT22;11624;53.250;7.456;2023-08-17T07:09:44;24.36;51.82
22917;DHT22;11624;53.250;7.456;2023-08-17T07:12:12;24.33;51.59
22917;DHT22;11624;53.250;7.456;2023-08-17T07:14:40;24.28;51.24
22917;DHT22;11624;53.250;7.456;2023-08-17T07:17:09;24.25;51.43
22917;DHT22;11624;53.250;7.456;2023-08-17T07:19:37;24.28;51.63
22917;DHT22;11624;53.250;7.456;2023-08-17T07:22:25;24.34;51.28
22917;DHT22;11624;53.250;7.456;2023-08-17T07:24:53;24.41;51.37
22917;DHT22;11624;53.250;7.456;2023-08-17T07:27:21;24.42;50.68
22917;DHT22;11624;53.250;7.456;2023-08-17T07:29:50;24.62;49.87
22917;DHT22;11624;53.250;7.456;2023-08-17T07:32:20;24.66;49.44
22917;DHT22;11624;53.250;7.456;2023-08-17T07:34:48;24.65;49.63
22917;DHT22;11624;53.250;7.456;2023-08-17T07:37:16;24.61;49.72
22917;DHT22;11624;53.250;7.456;2023-08-17T07:39:44;24.56;49.90
22917;DHT22;11624;53.250;7.456;2023-08-17T07:42:12;24.59;49.85
22917;DHT22;11624;53.250;7.456;2023-08-17T07:44:41;24.54;49.85
22917;DHT22;11624;53.250;7.456;2023-08-17T07:47:09;24.51;50.18
22917;DHT22;11624;53.250;7.456;2023-08-17T07:49:38;24.54;50.05
22917;DHT22;11624;53.250;7.456;2023-08-17T07:52:06;24.60;50.05
22917;DHT22;11624;53.250;7.456;2023-08-17T07:54:34;24.65;49.86
22917;DHT22;11624;53.250;7.456;2023-08-17T07:57:02;24.74;49.88
22917;DHT22;11624;53.250;7.456;2023-08-17T07:59:31;24.85;49.53
22917;DHT22;11624;53.250;7.456;2023-08-17T08:01:59;24.91;49.56
22917;DHT22;11624;53.250;7.456;2023-08-17T08:04:27;25.00;49.31
22917;DHT22;11624;53.250;7.456;2023-08-17T08:06:56;25.14;49.08
22917;DHT22;11624;53.250;7.456;2023-08-17T08:09:24;25.23;49.13
22917;DHT22;11624;53.250;7.456;2023-08-17T08:11:52;25.46;48.76
22917;DHT22;11624;53.250;7.456;2023-08-17T08:14:20;25.56;47.73
22917;DHT22;11624;53.250;7.456;2023-08-17T08:16:49;25.62;47.41
22917;DHT22;11624;53.250;7.456;2023-08-17T08:19:17;25.69;47.09
22917;DHT22;11624;53.250;7.456;2023-08-17T08:21:45;25.69;46.86
22917;DHT22;11624;53.250;7.456;2023-08-17T08:24:14;25.67;46.74
22917;DHT22;11624;53.250;7.456;2023-08-17T08:26:52;25.67;47.32
22917;DHT22;11624;53.250;7.456;2023-08-17T08:29:21;25.64;47.23
22917;DHT22;11624;53.250;7.456;2023-08-17T08:31:49;25.62;47.40
22917;DHT22;11624;53.250;7.456;2023-08-17T08:34:17;25.65;47.28
22917;DHT22;11624;53.250;7.456;2023-08-17T08:36:46;25.61;47.40
22917;DHT22;11624;53.250;7.456;2023-08-17T08:39:16;25.58;47.25
22917;DHT22;11624;53.250;7.456;2023-08-17T08:41:45;25.44;47.38
22917;DHT22;11624;53.250;7.456;2023-08-17T08:44:13;25.40;47.91
22917;DHT22;11624;53.250;7.456;2023-08-17T08:46:44;25.40;47.77
22917;DHT22;11624;53.250;7.456;2023-08-17T08:49:17;25.36;47.87
22917;DHT22;11624;53.250;7.456;2023-08-17T08:51:49;25.43;48.22
22917;DHT22;11624;53.250;7.456;2023-08-17T08:54:21;25.45;48.01
22917;DHT22;11624;53.250;7.456;2023-08-17T08:56:53;25.40;48.02
22917;DHT22;11624;53.250;7.456;2023-08-17T08:59:23;25.33;48.12
22917;DHT22;11624;53.250;7.456;2023-08-17T09:01:54;25.20;48.23
22917;DHT22;11624;53.250;7.456;2023-08-17T09:04:23;25.19;48.70
22917;DHT22;11624;53.250;7.456;2023-08-17T09:06:53;25.32;48.60
22917;DHT22;11624;53.250;7.456;2023-08-17T09:09:23;25.44;48.41
22917;DHT22;11624;53.250;7.456;2023-08-17T09:11:55;25.51;48.41
22917;DHT22;11624;53.250;7.456;2023-08-17T09:14:23;25.58;48.08
22917;DHT22;11624;53.250;7.456;2023-08-17T09:16:51;25.58;48.07
22917;DHT22;11624;53.250;7.456;2023-08-17T09:19:20;25.69;48.15
22917;DHT22;11624;53.250;7.456;2023-08-17T09:21:48;25.76;47.87
22917;DHT22;11624;53.250;7.456;2023-08-17T09:24:17;25.81;47.33
22917;DHT22;11624;53.250;7.456;2023-08-17T09:26:48;25.89;47.25
22917;DHT22;11624;53.250;7.456;2023-08-17T09:29:18;26.02;47.61
22917;DHT22;11624;53.250;7.456;2023-08-17T09:31:46;26.18;47.41
22917;DHT22;11624;53.250;7.456;2023-08-17T09:34:15;26.39;47.38
22917;DHT22;11624;53.250;7.456;2023-08-17T09:36:45;26.54;46.79
22917;DHT22;11624;53.250;7.456;2023-08-17T09:39:15;26.60;46.42
22917;DHT22;11624;53.250;7.456;2023-08-17T09:41:44;26.66;46.70
22917;DHT22;11624;53.250;7.456;2023-08-17T09:44:14;26.65;46.28
22917;DHT22;11624;53.250;7.456;2023-08-17T09:46:43;26.71;46.28
22917;DHT22;11624;53.250;7.456;2023-08-17T09:49:12;26.85;45.88
22917;DHT22;11624;53.250;7.456;2023-08-17T09:51:42;26.90;45.96
22917;DHT22;11624;53.250;7.456;2023-08-17T09:54:20;26.97;45.90
22917;DHT22;11624;53.250;7.456;2023-08-17T09:56:50;27.04;45.34
22917;DHT22;11624;53.250;7.456;2023-08-17T09:59:20;27.04;45.33
22917;DHT22;11624;53.250;7.456;2023-08-17T10:01:49;26.98;45.21
22917;DHT22;11624;53.250;7.456;2023-08-17T10:04:21;26.95;45.09
22917;DHT22;11624;53.250;7.456;2023-08-17T10:06:55;26.95;45.53
22917;DHT22;11624;53.250;7.456;2023-08-17T10:09:25;26.96;45.43
22917;DHT22;11624;53.250;7.456;2023-08-17T10:11:57;26.99;45.37
22917;DHT22;11624;53.250;7.456;2023-08-17T10:14:33;27.00;45.50
22917;DHT22;11624;53.250;7.456;2023-08-17T10:17:07;27.02;45.46
22917;DHT22;11624;53.250;7.456;2023-08-17T10:19:43;27.00;45.85
22917;DHT22;11624;53.250;7.456;2023-08-17T10:22:17;27.07;45.85
22917;DHT22;11624;53.250;7.456;2023-08-17T10:24:47;27.08;45.88
22917;DHT22;11624;53.250;7.456;2023-08-17T10:27:16;27.10;46.11
22917;DHT22;11624;53.250;7.456;2023-08-17T10:29:47;27.11;45.65
22917;DHT22;11624;53.250;7.456;2023-08-17T10:32:16;27.11;45.97
22917;DHT22;11624;53.250;7.456;2023-08-17T10:34:44;27.19;46.15
22917;DHT22;11624;53.250;7.456;2023-08-17T10:37:13;27.29;46.06
22917;DHT22;11624;53.250;7.456;2023-08-17T10:39:45;27.34;45.91
22917;DHT22;11624;53.250;7.456;2023-08-17T10:42:13;27.26;45.83
22917;DHT22;11624;53.250;7.456;2023-08-17T10:44:48;27.17;46.37
22917;DHT22;11624;53.250;7.456;2023-08-17T10:47:23;27.09;46.58
22917;DHT22;11624;53.250;7.456;2023-08-17T10:49:55;27.02;46.78
22917;DHT22;11624;53.250;7.456;2023-08-17T10:52:28;26.98;46.86
22917;DHT22;11624;53.250;7.456;2023-08-17T10:54:59;27.00;47.18
22917;DHT22;11624;53.250;7.456;2023-08-17T10:57:29;26.98;47.09
22917;DHT22;11624;53.250;7.456;2023-08-17T11:00:16;26.96;47.22
22917;DHT22;11624;53.250;7.456;2023-08-17T11:02:55;27.12;47.27
22917;DHT22;11624;53.250;7.456;2023-08-17T11:05:46;27.25;46.47
22917;DHT22;11624;53.250;7.456;2023-08-17T11:08:21;27.34;46.00
22917;DHT22;11624;53.250;7.456;2023-08-17T11:11:03;27.36;45.90
22917;DHT22;11624;53.250;7.456;2023-08-17T11:13:33;27.49;45.79
22917;DHT22;11624;53.250;7.456;2023-08-17T11:16:03;27.67;45.58
22917;DHT22;11624;53.250;7.456;2023-08-17T11:18:32;27.87;44.95
22917;DHT22;11624;53.250;7.456;2023-08-17T11:21:01;28.03;44.77
22917;DHT22;11624;53.250;7.456;2023-08-17T11:23:30;28.13;44.17
22917;DHT22;11624;53.250;7.456;2023-08-17T11:25:59;28.18;43.60
22917;DHT22;11624;53.250;7.456;2023-08-17T11:28:29;28.24;43.96
22917;DHT22;11624;53.250;7.456;2023-08-17T11:31:03;28.53;44.16
22917;DHT22;11624;53.250;7.456;2023-08-17T11:33:32;28.97;43.45
22917;DHT22;11624;53.250;7.456;2023-08-17T11:36:02;29.46;43.77
22917;DHT22;11624;53.250;7.456;2023-08-17T11:38:31;29.92;41.69
22917;DHT22;11624;53.250;7.456;2023-08-17T11:40:59;30.03;41.57
22917;DHT22;11624;53.250;7.456;2023-08-17T11:43:30;29.91;40.04
22917;DHT22;11624;53.250;7.456;2023-08-17T11:46:01;29.63;40.67
22917;DHT22;11624;53.250;7.456;2023-08-17T11:48:30;29.56;41.42
22917;DHT22;11624;53.250;7.456;2023-08-17T11:51:01;29.52;41.03
22917;DHT22;11624;53.250;7.456;2023-08-17T11:53:34;29.38;41.45
22917;DHT22;11624;53.250;7.456;2023-08-17T11:56:02;29.31;41.77
22917;DHT22;11624;53.250;7.456;2023-08-17T11:58:39;29.34;41.32
22917;DHT22;11624;53.250;7.456;2023-08-17T12:01:10;29.43;41.51
22917;DHT22;11624;53.250;7.456;2023-08-17T12:03:39;29.62;41.29
22917;DHT22;11624;53.250;7.456;2023-08-17T12:06:09;29.75;41.85
22917;DHT22;11624;53.250;7.456;2023-08-17T12:11:13;29.80;40.23
22917;DHT22;11624;53.250;7.456;2023-08-17T12:13:43;29.68;41.32
22917;DHT22;11624;53.250;7.456;2023-08-17T12:16:16;29.68;41.00
22917;DHT22;11624;53.250;7.456;2023-08-17T12:18:44;29.70;40.49
22917;DHT22;11624;53.250;7.456;2023-08-17T12:21:13;29.63;40.60
22917;DHT22;11624;53.250;7.456;2023-08-17T12:23:41;29.54;40.84
22917;DHT22;11624;53.250;7.456;2023-08-17T12:26:09;29.38;41.56
22917;DHT22;11624;53.250;7.456;2023-08-17T12:28:40;29.33;41.11
22917;DHT22;11624;53.250;7.456;2023-08-17T12:31:08;29.12;41.26
22917;DHT22;11624;53.250;7.456;2023-08-17T12:33:38;29.07;42.00
22917;DHT22;11624;53.250;7.456;2023-08-17T12:36:06;29.14;42.63
22917;DHT22;11624;53.250;7.456;2023-08-17T12:38:34;29.26;42.40
22917;DHT22;11624;53.250;7.456;2023-08-17T12:41:04;29.34;42.48
22917;DHT22;11624;53.250;7.456;2023-08-17T12:43:33;29.54;42.26
22917;DHT22;11624;53.250;7.456;2023-08-17T12:46:01;29.67;41.49
22917;DHT22;11624;53.250;7.456;2023-08-17T12:48:31;29.66;41.48
22917;DHT22;11624;53.250;7.456;2023-08-17T12:51:04;29.81;41.26
22917;DHT22;11624;53.250;7.456;2023-08-17T12:53:32;29.86;41.45
22917;DHT22;11624;53.250;7.456;2023-08-17T12:56:00;29.82;41.51
22917;DHT22;11624;53.250;7.456;2023-08-17T12:58:28;29.62;41.54
22917;DHT22;11624;53.250;7.456;2023-08-17T13:00:56;29.47;42.18
22917;DHT22;11624;53.250;7.456;2023-08-17T13:03:24;29.43;41.89
22917;DHT22;11624;53.250;7.456;2023-08-17T13:05:53;29.33;41.88
22917;DHT22;11624;53.250;7.456;2023-08-17T13:08:22;29.30;42.58
22917;DHT22;11624;53.250;7.456;2023-08-17T13:10:51;29.29;42.68
22917;DHT22;11624;53.250;7.456;2023-08-17T13:13:20;29.28;42.10
22917;DHT22;11624;53.250;7.456;2023-08-17T13:15:48;29.31;42.54
22917;DHT22;11624;53.250;7.456;2023-08-17T13:18:16;29.37;42.31
22917;DHT22;11624;53.250;7.456;2023-08-17T13:20:44;29.44;41.41
22917;DHT22;11624;53.250;7.456;2023-08-17T13:23:13;29.34;41.91
22917;DHT22;11624;53.250;7.456;2023-08-17T13:25:42;29.28;42.61
22917;DHT22;11624;53.250;7.456;2023-08-17T13:28:11;29.21;42.26
22917;DHT22;11624;53.250;7.456;2023-08-17T13:30:39;29.07;42.81
22917;DHT22;11624;53.250;7.456;2023-08-17T13:33:07;29.05;42.96
22917;DHT22;11624;53.250;7.456;2023-08-17T13:35:35;29.03;43.07
22917;DHT22;11624;53.250;7.456;2023-08-17T13:38:04;29.03;43.52
22917;DHT22;11624;53.250;7.456;2023-08-17T13:40:32;28.94;43.37
22917;DHT22;11624;53.250;7.456;2023-08-17T13:43:02;28.90;43.70
22917;DHT22;11624;53.250;7.456;2023-08-17T13:45:30;28.78;43.66
22917;DHT22;11624;53.250;7.456;2023-08-17T13:47:58;28.67;43.58
22917;DHT22;11624;53.250;7.456;2023-08-17T13:50:26;28.52;44.17
22917;DHT22;11624;53.250;7.456;2023-08-17T13:52:54;28.50;44.44
22917;DHT22;11624;53.250;7.456;2023-08-17T13:55:23;28.42;44.80
22917;DHT22;11624;53.250;7.456;2023-08-17T13:57:51;28.26;44.83
22917;DHT22;11624;53.250;7.456;2023-08-17T14:00:21;28.11;45.19
22917;DHT22;11624;53.250;7.456;2023-08-17T14:02:49;28.01;45.34
22917;DHT22;11624;53.250;7.456;2023-08-17T14:05:17;27.96;45.83
22917;DHT22;11624;53.250;7.456;2023-08-17T14:07:47;27.99;45.60
22917;DHT22;11624;53.250;7.456;2023-08-17T14:10:15;27.98;45.83
22917;DHT22;11624;53.250;7.456;2023-08-17T14:13:03;28.06;45.59
22917;DHT22;11624;53.250;7.456;2023-08-17T14:15:32;28.06;45.70
22917;DHT22;11624;53.250;7.456;2023-08-17T14:18:01;28.02;45.74
22917;DHT22;11624;53.250;7.456;2023-08-17T14:20:30;27.91;45.98
22917;DHT22;11624;53.250;7.456;2023-08-17T14:22:58;27.94;46.14
22917;DHT22;11624;53.250;7.456;2023-08-17T14:25:27;27.94;46.04
22917;DHT22;11624;53.250;7.456;2023-08-17T14:27:57;27.91;45.99
22917;DHT22;11624;53.250;7.456;2023-08-17T14:30:25;27.89;46.33
22917;DHT22;11624;53.250;7.456;2023-08-17T14:32:55;27.91;46.16
22917;DHT22;11624;53.250;7.456;2023-08-17T14:35:26;27.97;46.28
22917;DHT22;11624;53.250;7.456;2023-08-17T14:37:55;28.01;46.27
22917;DHT22;11624;53.250;7.456;2023-08-17T14:40:25;27.96;46.12
22917;DHT22;11624;53.250;7.456;2023-08-17T14:42:53;27.89;46.15
22917;DHT22;11624;53.250;7.456;2023-08-17T14:45:21;27.81;46.47
22917;DHT22;11624;53.250;7.456;2023-08-17T14:47:50;27.73;46.59
22917;DHT22;11624;53.250;7.456;2023-08-17T14:50:20;27.69;46.75
22917;DHT22;11624;53.250;7.456;2023-08-17T14:52:55;27.66;47.01
22917;DHT22;11624;53.250;7.456;2023-08-17T14:55:23;27.59;47.17
22917;DHT22;11624;53.250;7.456;2023-08-17T14:57:51;27.57;47.22
22917;DHT22;11624;53.250;7.456;2023-08-17T15:00:19;27.54;47.30
22917;DHT22;11624;53.250;7.456;2023-08-17T15:02:47;27.51;47.35
22917;DHT22;11624;53.250;7.456;2023-08-17T15:05:16;27.46;47.45
22917;DHT22;11624;53.250;7.456;2023-08-17T15:07:46;27.42;47.56
22917;DHT22;11624;53.250;7.456;2023-08-17T15:10:14;27.40;47.63
22917;DHT22;11624;53.250;7.456;2023-08-17T15:12:42;27.37;47.95
22917;DHT22;11624;53.250;7.456;2023-08-17T15:15:10;27.36;47.85
22917;DHT22;11624;53.250;7.456;2023-08-17T15:17:38;27.30;47.97
22917;DHT22;11624;53.250;7.456;2023-08-17T15:20:07;27.28;48.28
22917;DHT22;11624;53.250;7.456;2023-08-17T15:22:35;27.29;48.44
22917;DHT22;11624;53.250;7.456;2023-08-17T15:25:05;27.35;48.28
22917;DHT22;11624;53.250;7.456;2023-08-17T15:27:33;27.35;48.24
22917;DHT22;11624;53.250;7.456;2023-08-17T15:30:02;27.29;48.19
22917;DHT22;11624;53.250;7.456;2023-08-17T15:32:30;27.19;47.98
22917;DHT22;11624;53.250;7.456;2023-08-17T15:34:59;27.14;47.96
22917;DHT22;11624;53.250;7.456;2023-08-17T15:37:27;27.12;47.61
22917;DHT22;11624;53.250;7.456;2023-08-17T15:39:56;27.11;47.55
22917;DHT22;11624;53.250;7.456;2023-08-17T15:42:26;27.12;47.28
22917;DHT22;11624;53.250;7.456;2023-08-17T15:44:54;27.14;47.27
22917;DHT22;11624;53.250;7.456;2023-08-17T15:47:23;27.19;46.86